createdAt,value
2023-03-11T00:00:36.814Z,93801.50
2023-03-11T00:03:23.443Z,93800.19
2023-03-11T00:06:09.546Z,93799.97
2023-03-11T00:08:55.154Z,93811.47
2023-03-11T00:11:41.847Z,93812.16
2023-03-11T00:14:28.211Z,93820.69
2023-03-11T00:17:14.029Z,93823.84
2023-03-11T00:19:59.558Z,93820.69
2023-03-11T00:22:45.507Z,93817.53
2023-03-11T00:25:32.772Z,93809.44
2023-03-11T00:28:18.669Z,93816.75
2023-03-11T00:31:05.009Z,93810.13
2023-03-11T00:33:50.878Z,93810.56
2023-03-11T00:36:36.870Z,93809.00
2023-03-11T00:39:23.436Z,93808.22
2023-03-11T00:42:09.733Z,93808.31
2023-03-11T00:44:55.650Z,93803.00
2023-03-11T00:47:41.714Z,93801.53
2023-03-11T00:50:30.699Z,93810.09
2023-03-11T00:53:16.353Z,93808.97
2023-03-11T00:56:10.065Z,93808.63
2023-03-11T00:58:57.745Z,93805.59
2023-03-11T01:01:43.752Z,93807.25
2023-03-11T01:04:29.806Z,93809.50
2023-03-11T01:07:15.719Z,93808.03
2023-03-11T01:10:02.797Z,93802.84
2023-03-11T01:12:49.253Z,93797.88
2023-03-11T01:15:37.010Z,93786.28
2023-03-11T01:18:23.224Z,93799.44
2023-03-11T01:21:09.184Z,93808.31
2023-03-11T01:23:55.074Z,93807.53
2023-03-11T01:26:40.878Z,93811.34
2023-03-11T01:29:26.861Z,93816.75
2023-03-11T01:32:14.672Z,93815.19
2023-03-11T01:35:00.539Z,93807.53
2023-03-11T01:37:47.049Z,93802.13
2023-03-11T01:40:36.667Z,93807.53
2023-03-11T01:43:45.333Z,93811.34
2023-03-11T01:46:41.677Z,93808.66
2023-03-11T01:49:27.746Z,93812.06
2023-03-11T01:52:14.883Z,93813.19
2023-03-11T01:55:07.603Z,93801.50
2023-03-11T01:57:54.903Z,93811.72
2023-03-11T02:00:42.338Z,93814.50
2023-03-11T02:03:35.227Z,93815.63
2023-03-11T02:06:23.100Z,93815.28
2023-03-11T02:09:09.329Z,93812.59
2023-03-11T02:11:56.318Z,93807.53
2023-03-11T02:14:54.601Z,93813.03
2023-03-11T02:17:42.588Z,93810.78
2023-03-11T02:20:52.849Z,93816.97
2023-03-11T02:23:56.838Z,93826.19
2023-03-11T02:27:10.597Z,93822.34
2023-03-11T02:29:56.955Z,93822.34
2023-03-11T02:32:44.245Z,93818.53
2023-03-11T02:35:31.666Z,93823.16
2023-03-11T02:38:18.873Z,93814.94
2023-03-11T02:41:06.684Z,93824.63
2023-03-11T02:43:52.677Z,93825.75
2023-03-11T02:46:41.625Z,93830.00
2023-03-11T02:49:30.132Z,93829.13
2023-03-11T02:52:17.415Z,93826.69
2023-03-11T02:55:03.858Z,93819.72
2023-03-11T02:57:50.419Z,93812.75
2023-03-11T03:00:36.333Z,93820.38
2023-03-11T03:03:26.572Z,93816.47
2023-03-11T03:06:12.367Z,93811.16
2023-03-11T03:09:03.357Z,93800.38
2023-03-11T03:11:49.748Z,93806.22
2023-03-11T03:14:35.665Z,93805.44
2023-03-11T03:17:21.614Z,93805.78
2023-03-11T03:20:13.072Z,93807.16
2023-03-11T03:23:02.642Z,93811.66
2023-03-11T03:25:50.877Z,93820.09
2023-03-11T03:28:36.850Z,93812.34
2023-03-11T03:31:23.273Z,93821.56
2023-03-11T03:34:09.343Z,93831.94
2023-03-11T03:36:56.065Z,93833.47
2023-03-11T03:39:42.309Z,93824.97
2023-03-11T03:42:30.115Z,93826.09
2023-03-11T03:45:16.204Z,93819.56
2023-03-11T03:48:01.897Z,93805.97
2023-03-11T03:50:51.983Z,93813.72
2023-03-11T03:53:38.150Z,93811.25
2023-03-11T03:56:25.208Z,93810.72
2023-03-11T03:59:10.992Z,93817.81
2023-03-11T04:02:00.795Z,93810.63
2023-03-11T04:04:48.948Z,93817.41
2023-03-11T04:07:36.129Z,93817.97
2023-03-11T04:10:23.913Z,93830.22
2023-03-11T04:13:10.486Z,93831.69
2023-03-11T04:15:56.554Z,93823.94
2023-03-11T04:18:42.772Z,93831.56
2023-03-11T04:21:28.622Z,93838.53
2023-03-11T04:24:15.558Z,93852.78
2023-03-11T04:27:01.951Z,93853.13
2023-03-11T04:29:48.271Z,93846.16
2023-03-11T04:32:34.248Z,93843.81
2023-03-11T04:35:20.699Z,93819.22
2023-03-11T04:38:07.318Z,93842.59
2023-03-11T04:40:54.859Z,93842.13
2023-03-11T04:43:40.830Z,93840.56
2023-03-11T04:46:26.940Z,93844.38
2023-03-11T04:49:13.054Z,93838.53
2023-03-11T04:51:58.854Z,93838.09
2023-03-11T04:54:45.728Z,93836.47
2023-03-11T04:57:31.942Z,93836.06
2023-03-11T05:00:23.011Z,93836.28
2023-03-11T05:03:10.527Z,93840.22
2023-03-11T05:05:57.385Z,93841.19
2023-03-11T05:08:44.347Z,93840.31
2023-03-11T05:11:31.201Z,93853.34
2023-03-11T05:14:17.132Z,93845.47
2023-03-11T05:17:03.073Z,93836.97
2023-03-11T05:19:49.473Z,93838.06
2023-03-11T05:22:41.075Z,93837.38
2023-03-11T05:25:27.270Z,93842.09
2023-03-11T05:28:13.436Z,93852.19
2023-03-11T05:31:09.316Z,93841.22
2023-03-11T05:33:56.376Z,93843.44
2023-03-11T05:36:42.801Z,93848.81
2023-03-11T05:39:28.937Z,93849.63
2023-03-11T05:42:14.429Z,93848.81
2023-03-11T05:45:00.772Z,93847.25
2023-03-11T05:47:47.742Z,93852.41
2023-03-11T05:50:34.849Z,93850.63
2023-03-11T05:53:23.302Z,93844.56
2023-03-11T05:56:08.913Z,93854.66
2023-03-11T05:58:57.889Z,93857.81
2023-03-11T06:01:45.726Z,93854.31
2023-03-11T06:04:32.244Z,93859.38
2023-03-11T06:07:20.255Z,93861.09
2023-03-11T06:10:08.029Z,93862.75
2023-03-11T06:12:54.171Z,93857.16
2023-03-11T06:15:46.421Z,93867.94
2023-03-11T06:18:32.720Z,93866.13
2023-03-11T06:21:24.188Z,93855.34
2023-03-11T06:24:10.114Z,93856.38
2023-03-11T06:26:57.062Z,93865.03
2023-03-11T06:29:47.106Z,93869.09
2023-03-11T06:32:35.507Z,93858.75
2023-03-11T06:35:21.285Z,93854.50
2023-03-11T06:38:07.516Z,93853.38
2023-03-11T06:40:53.630Z,93860.09
2023-03-11T06:43:39.759Z,93863.25
2023-03-11T06:46:26.760Z,93855.16
2023-03-11T06:49:14.382Z,93869.50
2023-03-11T06:52:01.265Z,93871.09
2023-03-11T06:54:47.711Z,93863.00
2023-03-11T06:57:35.537Z,93864.56
2023-03-11T07:00:24.404Z,93867.25
2023-03-11T07:03:15.155Z,93867.50
2023-03-11T07:06:01.653Z,93859.06
2023-03-11T07:08:49.136Z,93852.19
2023-03-11T07:11:35.032Z,93849.97
2023-03-11T07:14:28.805Z,93846.59
2023-03-11T07:17:15.771Z,93839.16
2023-03-11T07:20:07.631Z,93852.19
2023-03-11T07:22:53.802Z,93838.69
2023-03-11T07:25:39.407Z,93843.53
2023-03-11T07:28:26.074Z,93834.41
2023-03-11T07:31:18.582Z,93819.78
2023-03-11T07:34:06.447Z,93834.72
2023-03-11T07:36:52.176Z,93826.28
2023-03-11T07:39:37.874Z,93832.66
2023-03-11T07:42:23.919Z,93828.59
2023-03-11T07:45:12.739Z,93833.03
2023-03-11T07:47:58.393Z,93817.66
2023-03-11T07:50:44.145Z,93817.81
2023-03-11T07:53:30.093Z,93822.53
2023-03-11T07:56:17.249Z,93825.91
2023-03-11T07:59:04.442Z,93821.47
2023-03-11T08:01:53.515Z,93808.66
2023-03-11T08:04:39.172Z,93807.63
2023-03-11T08:07:25.250Z,93802.34
2023-03-11T08:10:12.972Z,93800.94
2023-03-11T08:12:58.842Z,93797.31
2023-03-11T08:15:44.878Z,93785.81
2023-03-11T08:18:31.149Z,93774.78
2023-03-11T08:21:20.127Z,93773.13
2023-03-11T08:24:07.017Z,93778.03
2023-03-11T08:26:53.236Z,93767.13
2023-03-11T08:29:38.856Z,93765.50
2023-03-11T08:32:24.861Z,93764.25
2023-03-11T08:35:11.404Z,93765.28
2023-03-11T08:37:57.449Z,93764.72
2023-03-11T08:40:43.195Z,93769.63
2023-03-11T08:43:29.044Z,93778.31
2023-03-11T08:46:22.393Z,93761.34
2023-03-11T08:49:08.623Z,93761.97
2023-03-11T08:51:54.826Z,93773.34
2023-03-11T08:54:40.449Z,93770.44
2023-03-11T08:57:28.251Z,93774.06
2023-03-11T09:00:14.436Z,93766.16
2023-03-11T09:03:00.211Z,93777.34
2023-03-11T09:05:46.119Z,93766.53
2023-03-11T09:08:32.230Z,93767.78
2023-03-11T09:11:18.878Z,93774.38
2023-03-11T09:14:05.405Z,93768.25
2023-03-11T09:16:51.126Z,93777.06
2023-03-11T09:19:37.191Z,93764.00
2023-03-11T09:22:23.251Z,93767.94
2023-03-11T09:25:10.471Z,93768.63
2023-03-11T09:27:57.365Z,93766.63
2023-03-11T09:30:43.099Z,93763.84
2023-03-11T09:33:28.908Z,93752.19
2023-03-11T09:36:17.116Z,93758.44
2023-03-11T09:39:04.206Z,93762.34
2023-03-11T09:41:58.265Z,93762.06
2023-03-11T09:44:53.479Z,93754.34
2023-03-11T09:48:03.452Z,93743.88
2023-03-11T09:51:11.905Z,93740.00
2023-03-11T09:54:04.544Z,93754.66
2023-03-11T09:56:51.027Z,93751.00
2023-03-11T09:59:37.590Z,93758.28
2023-03-11T10:02:26.746Z,93750.47
2023-03-11T10:05:27.851Z,93757.31
2023-03-11T10:08:24.593Z,93756.94
2023-03-11T10:11:25.265Z,93756.50
2023-03-11T10:14:35.408Z,93762.66
2023-03-11T10:18:17.506Z,93758.78
2023-03-11T10:21:30.423Z,93747.22
2023-03-11T10:24:59.178Z,93749.00
2023-03-11T10:27:44.730Z,93745.78
2023-03-11T10:30:43.806Z,93733.19
2023-03-11T10:33:37.678Z,93723.34
2023-03-11T10:36:26.522Z,93717.19
2023-03-11T10:39:12.643Z,93726.13
2023-03-11T10:42:06.377Z,93711.84
2023-03-11T10:44:52.693Z,93704.63
2023-03-11T10:47:38.468Z,93720.59
2023-03-11T10:50:24.492Z,93730.69
2023-03-11T10:53:16.245Z,93728.22
2023-03-11T10:56:02.081Z,93718.09
2023-03-11T10:58:51.239Z,93712.22
2023-03-11T11:01:37.031Z,93691.19
2023-03-11T11:04:37.779Z,93700.06
2023-03-11T11:07:34.032Z,93702.38
2023-03-11T11:10:25.143Z,93690.72
2023-03-11T11:13:12.882Z,93682.19
2023-03-11T11:15:58.706Z,93684.94
2023-03-11T11:18:49.266Z,93675.25
2023-03-11T11:21:52.491Z,93669.09
2023-03-11T11:24:51.942Z,93668.25
2023-03-11T11:27:37.627Z,93666.59
2023-03-11T11:30:24.039Z,93669.31
2023-03-11T11:33:30.887Z,93665.78
2023-03-11T11:36:19.512Z,93665.94
2023-03-11T11:39:18.062Z,93661.00
2023-03-11T11:42:04.139Z,93647.50
2023-03-11T11:44:57.781Z,93654.72
2023-03-11T11:47:47.751Z,93654.19
2023-03-11T11:50:42.441Z,93655.19
2023-03-11T11:53:38.614Z,93654.09
2023-03-11T11:56:25.885Z,93656.88
2023-03-11T11:59:19.061Z,93659.22
2023-03-11T12:02:05.155Z,93658.44
2023-03-11T12:05:19.961Z,93648.25
2023-03-11T12:08:23.522Z,93657.56
2023-03-11T12:11:15.059Z,93654.38
2023-03-11T12:14:29.619Z,93650.47
2023-03-11T12:17:16.936Z,93652.81
2023-03-11T12:20:21.372Z,93654.47
2023-03-11T12:23:17.730Z,93656.50
2023-03-11T12:26:17.444Z,93661.16
2023-03-11T12:29:10.699Z,93664.34
2023-03-11T12:31:57.515Z,93662.44
2023-03-11T12:34:43.420Z,93665.56
2023-03-11T12:37:30.887Z,93655.41
2023-03-11T12:40:44.788Z,93660.81
2023-03-11T12:43:33.922Z,93679.41
2023-03-11T12:46:21.913Z,93676.97
2023-03-11T12:49:07.914Z,93682.31
2023-03-11T12:52:01.286Z,93690.75
2023-03-11T12:54:49.422Z,93685.59
2023-03-11T12:57:37.556Z,93699.16
2023-03-11T13:00:28.583Z,93686.97
2023-03-11T13:03:33.093Z,93690.47
2023-03-11T13:06:37.003Z,93703.66
2023-03-11T13:09:22.684Z,93712.91
2023-03-11T13:12:40.488Z,93715.56
2023-03-11T13:15:29.549Z,93726.69
2023-03-11T13:18:19.543Z,93728.13
2023-03-11T13:21:28.037Z,93718.59
2023-03-11T13:24:20.114Z,93722.72
2023-03-11T13:27:14.694Z,93734.66
2023-03-11T13:30:00.407Z,93750.09
2023-03-11T13:33:01.436Z,93756.13
2023-03-11T13:36:09.196Z,93766.66
2023-03-11T13:39:19.021Z,93748.13
2023-03-11T13:42:14.640Z,93779.97
2023-03-11T13:45:00.806Z,93777.41
2023-03-11T13:47:49.618Z,93777.88
2023-03-11T13:50:37.521Z,93793.06
2023-03-11T13:53:31.058Z,93805.00
2023-03-11T13:56:19.110Z,93808.41
2023-03-11T13:59:29.730Z,93815.66
2023-03-11T14:02:20.658Z,93827.59
2023-03-11T14:05:07.362Z,93828.56
2023-03-11T14:07:53.723Z,93845.81
2023-03-11T14:10:52.270Z,93836.78
2023-03-11T14:13:42.213Z,93861.41
2023-03-11T14:16:44.417Z,93894.38
2023-03-11T14:19:30.669Z,93883.91
2023-03-11T14:22:16.714Z,93897.91
2023-03-11T14:25:08.445Z,93910.69
2023-03-11T14:27:54.564Z,93924.31
2023-03-11T14:30:40.302Z,93932.31
2023-03-11T14:33:26.551Z,93949.88
2023-03-11T14:36:14.093Z,93935.00
2023-03-11T14:38:59.803Z,93952.72
2023-03-11T14:41:45.659Z,93940.69
2023-03-11T14:44:37.796Z,93958.81
2023-03-11T14:47:35.836Z,93958.38
2023-03-11T14:50:24.524Z,93952.63
2023-03-11T14:53:15.694Z,93952.75
2023-03-11T14:56:13.755Z,93967.72
2023-03-11T14:59:12.594Z,93980.84
2023-03-11T15:02:11.771Z,94007.78
2023-03-11T15:04:59.508Z,94004.03
2023-03-11T15:07:49.007Z,94015.78
2023-03-11T15:10:36.981Z,94035.81
2023-03-11T15:13:24.312Z,94045.16
2023-03-11T15:16:35.892Z,94054.34
2023-03-11T15:19:28.665Z,94076.75
2023-03-11T15:22:41.179Z,94078.34
2023-03-11T15:25:29.634Z,94089.84
2023-03-11T15:28:28.118Z,94110.19
2023-03-11T15:31:20.142Z,94107.03
2023-03-11T15:34:18.755Z,94113.66
2023-03-11T15:37:21.743Z,94132.56
2023-03-11T15:40:19.815Z,94129.44
2023-03-11T15:43:29.747Z,94145.66
2023-03-11T15:46:15.665Z,94143.59
2023-03-11T15:49:01.455Z,94151.81
2023-03-11T15:51:47.366Z,94163.94
2023-03-11T15:54:33.445Z,94172.28
2023-03-11T15:57:27.093Z,94184.72
2023-03-11T16:00:22.743Z,94190.34
2023-03-11T16:03:08.914Z,94196.38
2023-03-11T16:05:54.925Z,94200.03
2023-03-11T16:08:40.738Z,94200.19
2023-03-11T16:11:27.188Z,94209.22
2023-03-11T16:14:18.062Z,94220.44
2023-03-11T16:17:03.827Z,94227.81
2023-03-11T16:19:49.813Z,94243.47
2023-03-11T16:22:37.024Z,94255.94
2023-03-11T16:25:27.347Z,94248.66
2023-03-11T16:28:14.506Z,94250.25
2023-03-11T16:31:00.688Z,94250.25
2023-03-11T16:33:46.442Z,94265.75
2023-03-11T16:36:32.408Z,94276.47
2023-03-11T16:39:18.566Z,94272.31
2023-03-11T16:42:04.611Z,94279.75
2023-03-11T16:44:50.768Z,94289.41
2023-03-11T16:47:36.662Z,94297.75
2023-03-11T16:50:24.385Z,94299.13
2023-03-11T16:53:10.424Z,94304.97
2023-03-11T16:55:56.805Z,94309.19
2023-03-11T16:58:42.860Z,94324.78
2023-03-11T17:01:29.216Z,94330.84
2023-03-11T17:04:15.339Z,94325.94
2023-03-11T17:07:01.317Z,94336.34
2023-03-11T17:09:48.237Z,94338.44
2023-03-11T17:12:34.326Z,94352.31
2023-03-11T17:15:20.865Z,94365.25
2023-03-11T17:18:06.977Z,94381.63
2023-03-11T17:20:54.053Z,94384.72
2023-03-11T17:23:40.034Z,94405.78
2023-03-11T17:26:27.767Z,94415.53
2023-03-11T17:29:13.471Z,94415.94
2023-03-11T17:31:59.933Z,94418.72
2023-03-11T17:34:45.919Z,94416.69
2023-03-11T17:37:31.985Z,94415.97
2023-03-11T17:40:18.575Z,94419.38
2023-03-11T17:43:04.742Z,94416.41
2023-03-11T17:45:51.076Z,94418.31
2023-03-11T17:48:37.637Z,94418.44
2023-03-11T17:51:25.861Z,94432.50
2023-03-11T17:54:11.734Z,94443.31
2023-03-11T17:56:58.712Z,94458.38
2023-03-11T17:59:44.646Z,94467.59
2023-03-11T18:02:30.888Z,94463.38
2023-03-11T18:05:18.757Z,94462.97
2023-03-11T18:08:04.808Z,94466.75
2023-03-11T18:10:53.167Z,94466.84
2023-03-11T18:13:40.542Z,94473.88
2023-03-11T18:16:28.975Z,94475.44
2023-03-11T18:19:15.077Z,94469.69
2023-03-11T18:22:01.327Z,94476.72
2023-03-11T18:24:47.707Z,94485.94
2023-03-11T18:27:33.636Z,94483.38
2023-03-11T18:30:19.986Z,94501.53
2023-03-11T18:33:05.880Z,94509.06
2023-03-11T18:35:51.987Z,94507.47
2023-03-11T18:38:38.170Z,94526.50
2023-03-11T18:41:26.117Z,94535.09
2023-03-11T18:44:12.293Z,94540.31
2023-03-11T18:46:58.180Z,94551.81
2023-03-11T18:49:44.470Z,94556.91
2023-03-11T18:52:30.922Z,94568.69
2023-03-11T18:55:16.912Z,94585.25
2023-03-11T18:58:03.058Z,94584.75
2023-03-11T19:00:49.880Z,94589.00
2023-03-11T19:03:38.709Z,94586.84
2023-03-11T19:06:28.309Z,94580.69
2023-03-11T19:09:14.745Z,94591.41
2023-03-11T19:12:00.473Z,94590.16
2023-03-11T19:14:46.616Z,94577.88
2023-03-11T19:17:32.504Z,94584.22
2023-03-11T19:20:19.321Z,94609.88
2023-03-11T19:23:06.327Z,94604.03
2023-03-11T19:26:02.449Z,94594.91
2023-03-11T19:28:49.354Z,94596.50
2023-03-11T19:31:35.591Z,94602.88
2023-03-11T19:34:22.408Z,94607.06
2023-03-11T19:37:08.369Z,94623.56
2023-03-11T19:39:54.246Z,94620.22
2023-03-11T19:42:40.265Z,94614.78
2023-03-11T19:45:31.204Z,94616.91
2023-03-11T19:48:17.449Z,94635.41
2023-03-11T19:51:06.098Z,94647.31
2023-03-11T19:53:52.608Z,94650.72
2023-03-11T19:56:40.433Z,94644.53
2023-03-11T19:59:26.335Z,94656.44
2023-03-11T20:02:13.152Z,94656.38
2023-03-11T20:04:58.978Z,94661.72
2023-03-11T20:07:47.728Z,94663.31
2023-03-11T20:10:38.600Z,94660.19
2023-03-11T20:13:24.683Z,94662.31
2023-03-11T20:16:16.059Z,94663.38
2023-03-11T20:19:05.684Z,94666.88
2023-03-11T20:21:51.920Z,94658.03
2023-03-11T20:24:38.549Z,94655.97
2023-03-11T20:27:24.511Z,94652.78
2023-03-11T20:30:11.139Z,94645.59
2023-03-11T20:32:57.236Z,94655.53
2023-03-11T20:35:43.448Z,94657.19
2023-03-11T20:38:29.485Z,94652.97
2023-03-11T20:41:15.320Z,94670.56
2023-03-11T20:44:00.994Z,94666.00
2023-03-11T20:46:47.109Z,94665.19
2023-03-11T20:49:33.066Z,94669.94
2023-03-11T20:52:18.812Z,94680.13
2023-03-11T20:55:05.092Z,94684.91
2023-03-11T20:57:51.443Z,94683.31
2023-03-11T21:00:37.941Z,94692.41
2023-03-11T21:03:23.991Z,94704.75
2023-03-11T21:06:24.628Z,94715.53
2023-03-11T21:09:16.188Z,94722.53
2023-03-11T21:12:02.374Z,94713.50
2023-03-11T21:14:48.210Z,94718.94
2023-03-11T21:17:34.704Z,94717.63
2023-03-11T21:20:20.915Z,94727.00
2023-03-11T21:23:08.813Z,94726.28
2023-03-11T21:25:59.520Z,94721.22
2023-03-11T21:28:47.079Z,94714.78
2023-03-11T21:31:33.972Z,94713.19
2023-03-11T21:34:20.208Z,94713.19
2023-03-11T21:37:07.196Z,94724.69
2023-03-11T21:39:53.255Z,94725.50
2023-03-11T21:42:39.989Z,94744.16
2023-03-11T21:45:26.065Z,94734.22
2023-03-11T21:48:13.677Z,94736.63
2023-03-11T21:50:59.518Z,94740.91
2023-03-11T21:53:45.953Z,94748.94
2023-03-11T21:56:31.816Z,94748.94
2023-03-11T21:59:17.733Z,94756.63
2023-03-11T22:02:03.892Z,94759.06
2023-03-11T22:04:50.851Z,94769.53
2023-03-11T22:07:37.090Z,94767.72
2023-03-11T22:10:23.568Z,94765.06
2023-03-11T22:13:10.584Z,94755.88
2023-03-11T22:15:58.486Z,94762.25
2023-03-11T22:18:45.408Z,94761.09
2023-03-11T22:21:31.651Z,94771.88
2023-03-11T22:24:17.250Z,94773.75
2023-03-11T22:27:03.185Z,94766.34
2023-03-11T22:29:49.551Z,94781.63
2023-03-11T22:32:35.794Z,94787.53
2023-03-11T22:35:21.707Z,94782.47
2023-03-11T22:38:07.413Z,94792.31
2023-03-11T22:40:53.086Z,94784.22
2023-03-11T22:43:39.503Z,94786.06
2023-03-11T22:46:26.063Z,94791.03
2023-03-11T22:49:11.861Z,94786.91
2023-03-11T22:51:57.804Z,94781.81
2023-03-11T22:54:43.954Z,94787.69
2023-03-11T22:57:38.586Z,94777.59
2023-03-11T23:00:24.714Z,94782.72
2023-03-11T23:03:11.753Z,94791.56
2023-03-11T23:06:01.764Z,94794.28
2023-03-11T23:08:48.270Z,94790.00
2023-03-11T23:11:34.522Z,94790.31
2023-03-11T23:14:27.941Z,94791.72
2023-03-11T23:17:19.617Z,94805.13
2023-03-11T23:20:06.599Z,94802.44
2023-03-11T23:22:52.511Z,94806.19
2023-03-11T23:25:40.707Z,94808.38
2023-03-11T23:28:26.336Z,94806.78
2023-03-11T23:31:14.068Z,94814.22
2023-03-11T23:33:59.655Z,94809.94
2023-03-11T23:36:45.304Z,94804.16
2023-03-11T23:39:31.873Z,94811.09
2023-03-11T23:42:25.325Z,94815.41
2023-03-11T23:45:12.062Z,94812.34
2023-03-11T23:47:58.058Z,94821.47
2023-03-11T23:50:49.128Z,94821.50
2023-03-11T23:53:34.796Z,94828.75
2023-03-11T23:56:20.987Z,94833.84
2023-03-11T23:59:06.963Z,94820.53
